sensor_id;sensor_type;location;lat;lon;timestamp;temperature;humidity
52697;DHT22;38593;52.670;6.286;2022-07-06T00:02:23;15.20;99.90
52697;DHT22;38593;52.670;6.286;2022-07-06T00:04:49;15.10;99.90
52697;DHT22;38593;52.670;6.286;2022-07-06T00:07:14;15.10;99.90
52697;DHT22;38593;52.670;6.286;2022-07-06T00:09:40;15.00;99.90
52697;DHT22;38593;52.670;6.286;2022-07-06T00:12:06;15.00;99.90
52697;DHT22;38593;52.670;6.286;2022-07-06T00:14:32;15.00;99.90
52697;DHT22;38593;52.670;6.286;2022-07-06T00:16:57;14.90;99.90
52697;DHT22;38593;52.670;6.286;2022-07-06T00:19:23;15.00;99.90
52697;DHT22;38593;52.670;6.286;2022-07-06T00:21:48;15.00;99.90
52697;DHT22;38593;52.670;6.286;2022-07-06T00:24:14;15.10;99.90
52697;DHT22;38593;52.670;6.286;2022-07-06T00:26:40;15.00;99.90
52697;DHT22;38593;52.670;6.286;2022-07-06T00:29:05;15.00;99.90
52697;DHT22;38593;52.670;6.286;2022-07-06T00:31:31;15.00;99.90
52697;DHT22;38593;52.670;6.286;2022-07-06T00:33:56;15.10;99.90
52697;DHT22;38593;52.670;6.286;2022-07-06T00:36:22;15.00;99.90
52697;DHT22;38593;52.670;6.286;2022-07-06T00:38:47;15.10;99.90
52697;DHT22;38593;52.670;6.286;2022-07-06T00:41:13;15.10;99.90
52697;DHT22;38593;52.670;6.286;2022-07-06T00:46:13;15.10;99.90
52697;DHT22;38593;52.670;6.286;2022-07-06T00:48:39;15.10;99.90
52697;DHT22;38593;52.670;6.286;2022-07-06T00:51:05;15.20;99.90
52697;DHT22;38593;52.670;6.286;2022-07-06T00:53:30;15.10;99.90
52697;DHT22;38593;52.670;6.286;2022-07-06T00:55:56;15.20;99.90
52697;DHT22;38593;52.670;6.286;2022-07-06T00:58:22;15.20;99.90
52697;DHT22;38593;52.670;6.286;2022-07-06T01:00:47;15.20;99.90
52697;DHT22;38593;52.670;6.286;2022-07-06T01:03:13;15.20;99.90
52697;DHT22;38593;52.670;6.286;2022-07-06T01:05:38;15.20;99.90
52697;DHT22;38593;52.670;6.286;2022-07-06T01:08:04;15.20;99.90
52697;DHT22;38593;52.670;6.286;2022-07-06T01:10:29;15.20;99.90
52697;DHT22;38593;52.670;6.286;2022-07-06T01:12:55;15.20;99.90
52697;DHT22;38593;52.670;6.286;2022-07-06T01:15:22;15.20;99.90
52697;DHT22;38593;52.670;6.286;2022-07-06T01:17:48;15.20;99.90
52697;DHT22;38593;52.670;6.286;2022-07-06T01:22:40;15.20;99.90
52697;DHT22;38593;52.670;6.286;2022-07-06T01:25:06;15.20;99.90
52697;DHT22;38593;52.670;6.286;2022-07-06T01:27:32;15.20;99.90
52697;DHT22;38593;52.670;6.286;2022-07-06T01:30:00;15.10;99.90
52697;DHT22;38593;52.670;6.286;2022-07-06T01:32:25;15.10;99.90
52697;DHT22;38593;52.670;6.286;2022-07-06T01:34:51;15.10;99.90
52697;DHT22;38593;52.670;6.286;2022-07-06T01:37:16;15.10;99.90
52697;DHT22;38593;52.670;6.286;2022-07-06T01:39:42;15.00;99.90
52697;DHT22;38593;52.670;6.286;2022-07-06T01:42:07;15.00;99.90
52697;DHT22;38593;52.670;6.286;2022-07-06T01:44:33;15.10;99.90
52697;DHT22;38593;52.670;6.286;2022-07-06T01:46:58;14.90;99.90
52697;DHT22;38593;52.670;6.286;2022-07-06T01:49:24;14.90;99.90
52697;DHT22;38593;52.670;6.286;2022-07-06T01:51:49;14.80;99.90
52697;DHT22;38593;52.670;6.286;2022-07-06T01:54:14;14.90;99.90
52697;DHT22;38593;52.670;6.286;2022-07-06T01:56:40;14.80;99.90
52697;DHT22;38593;52.670;6.286;2022-07-06T01:59:06;14.80;99.90
52697;DHT22;38593;52.670;6.286;2022-07-06T02:01:31;14.80;99.90
52697;DHT22;38593;52.670;6.286;2022-07-06T02:03:57;15.00;99.90
52697;DHT22;38593;52.670;6.286;2022-07-06T02:06:22;14.80;99.90
52697;DHT22;38593;52.670;6.286;2022-07-06T02:08:48;14.80;99.90
52697;DHT22;38593;52.670;6.286;2022-07-06T02:11:13;14.80;99.90
52697;DHT22;38593;52.670;6.286;2022-07-06T02:13:39;14.80;99.90
52697;DHT22;38593;52.670;6.286;2022-07-06T02:16:05;14.80;99.90
52697;DHT22;38593;52.670;6.286;2022-07-06T02:18:30;14.80;99.90
52697;DHT22;38593;52.670;6.286;2022-07-06T02:20:56;14.90;99.90
52697;DHT22;38593;52.670;6.286;2022-07-06T02:23:21;14.80;99.90
52697;DHT22;38593;52.670;6.286;2022-07-06T02:25:47;15.00;99.90
52697;DHT22;38593;52.670;6.286;2022-07-06T02:28:13;14.80;99.90
52697;DHT22;38593;52.670;6.286;2022-07-06T02:30:38;14.80;99.90
52697;DHT22;38593;52.670;6.286;2022-07-06T02:33:04;14.80;99.90
52697;DHT22;38593;52.670;6.286;2022-07-06T02:35:29;14.80;99.90
52697;DHT22;38593;52.670;6.286;2022-07-06T02:37:55;14.80;99.90
52697;DHT22;38593;52.670;6.286;2022-07-06T02:40:20;14.90;99.90
52697;DHT22;38593;52.670;6.286;2022-07-06T02:42:46;14.90;99.90
52697;DHT22;38593;52.670;6.286;2022-07-06T02:45:11;15.00;99.90
52697;DHT22;38593;52.670;6.286;2022-07-06T02:47:37;15.00;99.90
52697;DHT22;38593;52.670;6.286;2022-07-06T02:50:06;14.90;99.90
52697;DHT22;38593;52.670;6.286;2022-07-06T02:52:31;15.00;99.90
52697;DHT22;38593;52.670;6.286;2022-07-06T02:54:57;15.10;99.90
52697;DHT22;38593;52.670;6.286;2022-07-06T02:57:22;15.00;99.90
52697;DHT22;38593;52.670;6.286;2022-07-06T02:59:48;15.10;99.90
52697;DHT22;38593;52.670;6.286;2022-07-06T03:02:18;15.00;99.90
52697;DHT22;38593;52.670;6.286;2022-07-06T03:04:43;15.00;99.90
52697;DHT22;38593;52.670;6.286;2022-07-06T03:07:09;15.00;99.90
52697;DHT22;38593;52.670;6.286;2022-07-06T03:09:34;15.00;99.90
52697;DHT22;38593;52.670;6.286;2022-07-06T03:12:00;15.00;99.90
52697;DHT22;38593;52.670;6.286;2022-07-06T03:14:25;15.00;99.90
52697;DHT22;38593;52.670;6.286;2022-07-06T03:16:52;15.00;99.90
52697;DHT22;38593;52.670;6.286;2022-07-06T03:19:17;14.90;99.90
52697;DHT22;38593;52.670;6.286;2022-07-06T03:21:43;14.90;99.90
52697;DHT22;38593;52.670;6.286;2022-07-06T03:24:08;14.90;99.90
52697;DHT22;38593;52.670;6.286;2022-07-06T03:26:34;14.90;99.90
52697;DHT22;38593;52.670;6.286;2022-07-06T03:29:00;14.90;99.90
52697;DHT22;38593;52.670;6.286;2022-07-06T03:31:26;14.90;99.90
52697;DHT22;38593;52.670;6.286;2022-07-06T03:33:51;14.90;99.90
52697;DHT22;38593;52.670;6.286;2022-07-06T03:36:17;14.80;99.90
52697;DHT22;38593;52.670;6.286;2022-07-06T03:38:43;14.80;99.90
52697;DHT22;38593;52.670;6.286;2022-07-06T03:41:08;14.80;99.90
52697;DHT22;38593;52.670;6.286;2022-07-06T03:43:34;14.80;99.90
52697;DHT22;38593;52.670;6.286;2022-07-06T03:46:00;14.80;99.90
52697;DHT22;38593;52.670;6.286;2022-07-06T03:48:25;14.80;99.90
52697;DHT22;38593;52.670;6.286;2022-07-06T03:50:51;14.90;99.90
52697;DHT22;38593;52.670;6.286;2022-07-06T03:53:17;14.90;99.90
52697;DHT22;38593;52.670;6.286;2022-07-06T03:55:44;14.90;99.90
52697;DHT22;38593;52.670;6.286;2022-07-06T03:58:29;14.90;99.90
52697;DHT22;38593;52.670;6.286;2022-07-06T04:00:55;14.90;99.90
52697;DHT22;38593;52.670;6.286;2022-07-06T04:03:20;14.90;99.90
52697;DHT22;38593;52.670;6.286;2022-07-06T04:05:46;14.80;99.90
52697;DHT22;38593;52.670;6.286;2022-07-06T04:08:11;14.90;99.90
52697;DHT22;38593;52.670;6.286;2022-07-06T04:10:37;15.00;99.90
52697;DHT22;38593;52.670;6.286;2022-07-06T04:13:03;14.90;99.90
52697;DHT22;38593;52.670;6.286;2022-07-06T04:15:28;14.90;99.90
52697;DHT22;38593;52.670;6.286;2022-07-06T04:17:54;14.90;99.90
52697;DHT22;38593;52.670;6.286;2022-07-06T04:20:21;14.90;99.90
52697;DHT22;38593;52.670;6.286;2022-07-06T04:22:47;14.90;99.90
52697;DHT22;38593;52.670;6.286;2022-07-06T04:25:13;14.90;99.90
52697;DHT22;38593;52.670;6.286;2022-07-06T04:27:38;14.90;99.90
52697;DHT22;38593;52.670;6.286;2022-07-06T04:30:04;15.10;99.90
52697;DHT22;38593;52.670;6.286;2022-07-06T04:32:30;14.80;99.90
52697;DHT22;38593;52.670;6.286;2022-07-06T04:34:56;14.80;99.90
52697;DHT22;38593;52.670;6.286;2022-07-06T04:37:22;14.80;99.90
52697;DHT22;38593;52.670;6.286;2022-07-06T04:39:48;14.80;99.90
52697;DHT22;38593;52.670;6.286;2022-07-06T04:42:13;14.80;99.90
52697;DHT22;38593;52.670;6.286;2022-07-06T04:44:39;14.80;99.90
52697;DHT22;38593;52.670;6.286;2022-07-06T04:47:04;14.80;99.90
52697;DHT22;38593;52.670;6.286;2022-07-06T04:49:30;14.80;99.90
52697;DHT22;38593;52.670;6.286;2022-07-06T04:51:56;14.90;99.90
52697;DHT22;38593;52.670;6.286;2022-07-06T04:54:22;15.00;99.90
52697;DHT22;38593;52.670;6.286;2022-07-06T04:56:47;15.00;99.90
52697;DHT22;38593;52.670;6.286;2022-07-06T04:59:13;15.10;99.90
52697;DHT22;38593;52.670;6.286;2022-07-06T05:01:39;15.10;99.90
52697;DHT22;38593;52.670;6.286;2022-07-06T05:04:06;15.20;99.90
52697;DHT22;38593;52.670;6.286;2022-07-06T05:06:32;15.20;99.90
52697;DHT22;38593;52.670;6.286;2022-07-06T05:08:58;15.30;99.90
52697;DHT22;38593;52.670;6.286;2022-07-06T05:11:25;15.30;99.90
52697;DHT22;38593;52.670;6.286;2022-07-06T05:13:50;15.30;99.90
52697;DHT22;38593;52.670;6.286;2022-07-06T05:16:16;15.40;99.90
52697;DHT22;38593;52.670;6.286;2022-07-06T05:18:42;15.40;99.90
52697;DHT22;38593;52.670;6.286;2022-07-06T05:21:07;15.40;99.90
52697;DHT22;38593;52.670;6.286;2022-07-06T05:23:33;15.40;99.90
52697;DHT22;38593;52.670;6.286;2022-07-06T05:25:58;15.50;99.90
52697;DHT22;38593;52.670;6.286;2022-07-06T05:28:24;15.60;99.90
52697;DHT22;38593;52.670;6.286;2022-07-06T05:30:49;15.60;99.90
52697;DHT22;38593;52.670;6.286;2022-07-06T05:33:15;15.60;99.90
52697;DHT22;38593;52.670;6.286;2022-07-06T05:35:40;15.60;99.90
52697;DHT22;38593;52.670;6.286;2022-07-06T05:38:06;15.60;99.90
52697;DHT22;38593;52.670;6.286;2022-07-06T05:40:31;15.70;99.90
52697;DHT22;38593;52.670;6.286;2022-07-06T05:42:57;15.80;99.90
52697;DHT22;38593;52.670;6.286;2022-07-06T05:45:22;15.80;99.90
52697;DHT22;38593;52.670;6.286;2022-07-06T05:47:48;15.90;99.90
52697;DHT22;38593;52.670;6.286;2022-07-06T05:50:32;16.00;99.90
52697;DHT22;38593;52.670;6.286;2022-07-06T05:52:58;16.00;99.90
52697;DHT22;38593;52.670;6.286;2022-07-06T05:55:24;16.00;99.90
52697;DHT22;38593;52.670;6.286;2022-07-06T05:57:50;16.00;99.90
52697;DHT22;38593;52.670;6.286;2022-07-06T06:00:15;16.00;99.90
52697;DHT22;38593;52.670;6.286;2022-07-06T06:02:41;16.10;99.90
52697;DHT22;38593;52.670;6.286;2022-07-06T06:05:07;16.10;99.90
52697;DHT22;38593;52.670;6.286;2022-07-06T06:07:37;16.10;99.90
52697;DHT22;38593;52.670;6.286;2022-07-06T06:10:04;16.20;99.90
52697;DHT22;38593;52.670;6.286;2022-07-06T06:12:30;16.30;99.90
52697;DHT22;38593;52.670;6.286;2022-07-06T06:14:56;16.30;99.90
52697;DHT22;38593;52.670;6.286;2022-07-06T06:17:21;16.40;99.90
52697;DHT22;38593;52.670;6.286;2022-07-06T06:19:47;16.40;99.90
52697;DHT22;38593;52.670;6.286;2022-07-06T06:22:13;16.50;99.90
52697;DHT22;38593;52.670;6.286;2022-07-06T06:24:39;16.50;99.90
52697;DHT22;38593;52.670;6.286;2022-07-06T06:27:04;16.50;99.90
52697;DHT22;38593;52.670;6.286;2022-07-06T06:29:30;16.50;99.90
52697;DHT22;38593;52.670;6.286;2022-07-06T06:31:55;16.40;99.90
52697;DHT22;38593;52.670;6.286;2022-07-06T06:34:21;16.40;99.90
52697;DHT22;38593;52.670;6.286;2022-07-06T06:36:47;16.50;99.90
52697;DHT22;38593;52.670;6.286;2022-07-06T06:39:12;16.40;99.90
52697;DHT22;38593;52.670;6.286;2022-07-06T06:41:38;16.50;99.90
52697;DHT22;38593;52.670;6.286;2022-07-06T06:44:03;16.50;99.90
52697;DHT22;38593;52.670;6.286;2022-07-06T06:46:29;16.50;99.90
52697;DHT22;38593;52.670;6.286;2022-07-06T06:48:55;16.50;99.90
52697;DHT22;38593;52.670;6.286;2022-07-06T06:51:20;16.50;99.90
52697;DHT22;38593;52.670;6.286;2022-07-06T06:53:46;16.50;99.90
52697;DHT22;38593;52.670;6.286;2022-07-06T06:56:12;16.40;99.90
52697;DHT22;38593;52.670;6.286;2022-07-06T06:58:37;16.50;99.90
52697;DHT22;38593;52.670;6.286;2022-07-06T07:01:03;16.50;99.90
52697;DHT22;38593;52.670;6.286;2022-07-06T07:03:30;16.50;99.90
52697;DHT22;38593;52.670;6.286;2022-07-06T07:05:55;16.50;99.90
52697;DHT22;38593;52.670;6.286;2022-07-06T07:08:21;16.60;99.90
52697;DHT22;38593;52.670;6.286;2022-07-06T07:10:46;16.60;99.90
52697;DHT22;38593;52.670;6.286;2022-07-06T07:13:12;16.60;99.90
52697;DHT22;38593;52.670;6.286;2022-07-06T07:15:37;16.60;99.90
52697;DHT22;38593;52.670;6.286;2022-07-06T07:18:03;16.60;99.90
52697;DHT22;38593;52.670;6.286;2022-07-06T07:20:28;16.60;99.90
52697;DHT22;38593;52.670;6.286;2022-07-06T07:22:55;16.60;99.90
52697;DHT22;38593;52.670;6.286;2022-07-06T07:25:21;16.60;99.90
52697;DHT22;38593;52.670;6.286;2022-07-06T07:27:47;16.60;99.90
52697;DHT22;38593;52.670;6.286;2022-07-06T07:30:13;16.70;99.90
52697;DHT22;38593;52.670;6.286;2022-07-06T07:32:38;16.80;99.90
52697;DHT22;38593;52.670;6.286;2022-07-06T07:35:06;17.00;99.90
52697;DHT22;38593;52.670;6.286;2022-07-06T07:37:31;17.00;99.90
52697;DHT22;38593;52.670;6.286;2022-07-06T07:39:57;17.30;99.90
52697;DHT22;38593;52.670;6.286;2022-07-06T07:42:23;17.40;99.90
52697;DHT22;38593;52.670;6.286;2022-07-06T07:44:48;17.50;99.90
52697;DHT22;38593;52.670;6.286;2022-07-06T07:47:14;17.50;99.90
52697;DHT22;38593;52.670;6.286;2022-07-06T07:49:40;17.50;99.80
52697;DHT22;38593;52.670;6.286;2022-07-06T07:52:05;17.40;99.70
52697;DHT22;38593;52.670;6.286;2022-07-06T07:54:31;17.40;99.40
52697;DHT22;38593;52.670;6.286;2022-07-06T07:56:56;17.40;99.20
52697;DHT22;38593;52.670;6.286;2022-07-06T07:59:22;17.50;99.50
52697;DHT22;38593;52.670;6.286;2022-07-06T08:01:48;18.30;99.30
52697;DHT22;38593;52.670;6.286;2022-07-06T08:04:13;17.80;98.50
52697;DHT22;38593;52.670;6.286;2022-07-06T08:06:39;17.70;98.20
52697;DHT22;38593;52.670;6.286;2022-07-06T08:09:04;17.80;98.60
52697;DHT22;38593;52.670;6.286;2022-07-06T08:11:33;17.80;98.80
52697;DHT22;38593;52.670;6.286;2022-07-06T08:13:58;17.70;98.70
52697;DHT22;38593;52.670;6.286;2022-07-06T08:16:24;17.70;98.80
52697;DHT22;38593;52.670;6.286;2022-07-06T08:18:50;17.70;99.00
52697;DHT22;38593;52.670;6.286;2022-07-06T08:21:15;17.70;98.80
52697;DHT22;38593;52.670;6.286;2022-07-06T08:23:41;18.00;98.90
52697;DHT22;38593;52.670;6.286;2022-07-06T08:26:06;18.20;98.60
52697;DHT22;38593;52.670;6.286;2022-07-06T08:28:32;18.50;98.10
52697;DHT22;38593;52.670;6.286;2022-07-06T08:30:57;18.70;98.00
52697;DHT22;38593;52.670;6.286;2022-07-06T08:33:23;18.70;98.20
52697;DHT22;38593;52.670;6.286;2022-07-06T08:35:49;18.70;97.90
52697;DHT22;38593;52.670;6.286;2022-07-06T08:38:14;18.50;97.40
52697;DHT22;38593;52.670;6.286;2022-07-06T08:40:40;18.10;97.10
52697;DHT22;38593;52.670;6.286;2022-07-06T08:43:06;18.00;97.60
52697;DHT22;38593;52.670;6.286;2022-07-06T08:45:33;18.00;97.70
52697;DHT22;38593;52.670;6.286;2022-07-06T08:48:03;18.20;97.90
52697;DHT22;38593;52.670;6.286;2022-07-06T08:50:29;18.30;97.50
52697;DHT22;38593;52.670;6.286;2022-07-06T08:52:55;18.40;97.10
52697;DHT22;38593;52.670;6.286;2022-07-06T08:55:20;18.50;97.20
52697;DHT22;38593;52.670;6.286;2022-07-06T08:57:46;18.50;96.90
52697;DHT22;38593;52.670;6.286;2022-07-06T09:00:12;18.70;96.90
52697;DHT22;38593;52.670;6.286;2022-07-06T09:02:38;19.00;97.00
52697;DHT22;38593;52.670;6.286;2022-07-06T09:05:05;19.20;96.30
52697;DHT22;38593;52.670;6.286;2022-07-06T09:07:31;19.20;95.10
52697;DHT22;38593;52.670;6.286;2022-07-06T09:09:58;19.50;94.90
52697;DHT22;38593;52.670;6.286;2022-07-06T09:12:26;19.50;94.10
52697;DHT22;38593;52.670;6.286;2022-07-06T09:14:51;19.60;94.00
52697;DHT22;38593;52.670;6.286;2022-07-06T09:17:19;19.60;94.10
52697;DHT22;38593;52.670;6.286;2022-07-06T09:19:44;19.50;93.70
52697;DHT22;38593;52.670;6.286;2022-07-06T09:22:10;19.70;93.40
52697;DHT22;38593;52.670;6.286;2022-07-06T09:24:49;19.80;92.70
52697;DHT22;38593;52.670;6.286;2022-07-06T09:27:16;19.90;93.30
52697;DHT22;38593;52.670;6.286;2022-07-06T09:29:42;19.80;93.10
52697;DHT22;38593;52.670;6.286;2022-07-06T09:32:08;19.80;92.30
52697;DHT22;38593;52.670;6.286;2022-07-06T09:34:40;20.10;92.20
52697;DHT22;38593;52.670;6.286;2022-07-06T09:37:06;19.90;91.90
52697;DHT22;38593;52.670;6.286;2022-07-06T09:39:31;19.70;92.30
52697;DHT22;38593;52.670;6.286;2022-07-06T09:41:58;19.50;91.40
52697;DHT22;38593;52.670;6.286;2022-07-06T09:44:25;19.50;92.10
52697;DHT22;38593;52.670;6.286;2022-07-06T09:46:51;19.40;91.50
52697;DHT22;38593;52.670;6.286;2022-07-06T09:49:17;19.30;91.80
52697;DHT22;38593;52.670;6.286;2022-07-06T09:51:44;19.20;91.60
52697;DHT22;38593;52.670;6.286;2022-07-06T09:54:11;19.20;91.60
52697;DHT22;38593;52.670;6.286;2022-07-06T09:56:40;19.20;91.60
52697;DHT22;38593;52.670;6.286;2022-07-06T09:59:12;19.10;92.10
52697;DHT22;38593;52.670;6.286;2022-07-06T10:01:38;19.00;92.40
52697;DHT22;38593;52.670;6.286;2022-07-06T10:04:08;19.00;92.20
52697;DHT22;38593;52.670;6.286;2022-07-06T10:06:33;18.90;91.20
52697;DHT22;38593;52.670;6.286;2022-07-06T10:08:59;18.90;90.80
52697;DHT22;38593;52.670;6.286;2022-07-06T10:11:25;18.90;91.20
52697;DHT22;38593;52.670;6.286;2022-07-06T10:13:55;19.10;92.10
52697;DHT22;38593;52.670;6.286;2022-07-06T10:16:22;19.40;91.50
52697;DHT22;38593;52.670;6.286;2022-07-06T10:18:48;19.60;91.90
52697;DHT22;38593;52.670;6.286;2022-07-06T10:21:15;19.80;92.10
52697;DHT22;38593;52.670;6.286;2022-07-06T10:23:40;19.80;92.30
52697;DHT22;38593;52.670;6.286;2022-07-06T10:26:06;19.80;92.50
52697;DHT22;38593;52.670;6.286;2022-07-06T10:28:33;19.80;92.90
52697;DHT22;38593;52.670;6.286;2022-07-06T10:30:58;19.80;92.50
52697;DHT22;38593;52.670;6.286;2022-07-06T10:33:24;19.90;92.20
52697;DHT22;38593;52.670;6.286;2022-07-06T10:35:50;19.90;92.10
52697;DHT22;38593;52.670;6.286;2022-07-06T10:38:16;19.90;91.50
52697;DHT22;38593;52.670;6.286;2022-07-06T10:40:42;20.00;91.20
52697;DHT22;38593;52.670;6.286;2022-07-06T10:46:08;20.00;91.30
52697;DHT22;38593;52.670;6.286;2022-07-06T10:48:41;19.90;91.50
52697;DHT22;38593;52.670;6.286;2022-07-06T10:51:07;19.80;92.20
52697;DHT22;38593;52.670;6.286;2022-07-06T10:53:37;19.80;92.00
52697;DHT22;38593;52.670;6.286;2022-07-06T10:56:07;19.80;92.20
52697;DHT22;38593;52.670;6.286;2022-07-06T10:58:37;19.90;92.20
52697;DHT22;38593;52.670;6.286;2022-07-06T11:01:04;19.90;91.00
52697;DHT22;38593;52.670;6.286;2022-07-06T11:03:31;19.90;91.00
52697;DHT22;38593;52.670;6.286;2022-07-06T11:05:58;20.00;91.20
52697;DHT22;38593;52.670;6.286;2022-07-06T11:08:26;20.00;91.30
52697;DHT22;38593;52.670;6.286;2022-07-06T11:11:12;20.00;91.30
52697;DHT22;38593;52.670;6.286;2022-07-06T11:13:48;19.90;91.20
52697;DHT22;38593;52.670;6.286;2022-07-06T11:16:14;19.80;91.30
52697;DHT22;38593;52.670;6.286;2022-07-06T11:18:58;19.80;91.50
52697;DHT22;38593;52.670;6.286;2022-07-06T11:21:32;19.80;91.10
52697;DHT22;38593;52.670;6.286;2022-07-06T11:23:57;19.80;91.30
52697;DHT22;38593;52.670;6.286;2022-07-06T11:26:23;19.80;91.40
52697;DHT22;38593;52.670;6.286;2022-07-06T11:28:50;19.70;91.10
52697;DHT22;38593;52.670;6.286;2022-07-06T11:31:16;19.80;91.60
52697;DHT22;38593;52.670;6.286;2022-07-06T11:33:44;19.90;91.80
52697;DHT22;38593;52.670;6.286;2022-07-06T11:38:38;20.00;92.00
52697;DHT22;38593;52.670;6.286;2022-07-06T11:41:04;20.00;91.80
52697;DHT22;38593;52.670;6.286;2022-07-06T11:43:29;20.20;92.00
52697;DHT22;38593;52.670;6.286;2022-07-06T11:45:55;20.20;90.40
52697;DHT22;38593;52.670;6.286;2022-07-06T11:48:20;20.30;91.00
52697;DHT22;38593;52.670;6.286;2022-07-06T11:51:02;20.40;88.90
52697;DHT22;38593;52.670;6.286;2022-07-06T11:53:28;20.40;87.40
52697;DHT22;38593;52.670;6.286;2022-07-06T11:55:54;20.60;88.20
52697;DHT22;38593;52.670;6.286;2022-07-06T11:58:20;20.60;88.20
52697;DHT22;38593;52.670;6.286;2022-07-06T12:01:03;20.80;88.70
52697;DHT22;38593;52.670;6.286;2022-07-06T12:03:28;20.80;87.30
52697;DHT22;38593;52.670;6.286;2022-07-06T12:05:54;20.70;84.80
52697;DHT22;38593;52.670;6.286;2022-07-06T12:08:20;20.70;86.10
52697;DHT22;38593;52.670;6.286;2022-07-06T12:10:45;20.80;85.50
52697;DHT22;38593;52.670;6.286;2022-07-06T12:13:11;21.00;86.30
52697;DHT22;38593;52.670;6.286;2022-07-06T12:15:36;21.10;86.00
52697;DHT22;38593;52.670;6.286;2022-07-06T12:18:02;21.10;84.90
52697;DHT22;38593;52.670;6.286;2022-07-06T12:20:27;20.90;85.10
52697;DHT22;38593;52.670;6.286;2022-07-06T12:23:05;20.70;86.00
52697;DHT22;38593;52.670;6.286;2022-07-06T12:27:56;20.80;87.60
52697;DHT22;38593;52.670;6.286;2022-07-06T12:30:22;21.00;88.00
52697;DHT22;38593;52.670;6.286;2022-07-06T12:33:10;21.00;87.00
52697;DHT22;38593;52.670;6.286;2022-07-06T12:35:33;21.10;87.60
52697;DHT22;38593;52.670;6.286;2022-07-06T12:37:58;21.10;87.10
52697;DHT22;38593;52.670;6.286;2022-07-06T12:40:25;21.30;87.60
52697;DHT22;38593;52.670;6.286;2022-07-06T12:42:51;21.40;85.20
52697;DHT22;38593;52.670;6.286;2022-07-06T12:45:17;21.40;85.90
52697;DHT22;38593;52.670;6.286;2022-07-06T12:47:56;21.30;85.50
52697;DHT22;38593;52.670;6.286;2022-07-06T12:50:21;21.00;84.80
52697;DHT22;38593;52.670;6.286;2022-07-06T12:52:55;21.00;85.80
52697;DHT22;38593;52.670;6.286;2022-07-06T12:55:24;21.10;85.30
52697;DHT22;38593;52.670;6.286;2022-07-06T12:57:50;21.10;85.60
52697;DHT22;38593;52.670;6.286;2022-07-06T13:00:17;21.10;84.20
52697;DHT22;38593;52.670;6.286;2022-07-06T13:02:44;21.10;83.10
52697;DHT22;38593;52.670;6.286;2022-07-06T13:05:10;21.00;84.00
52697;DHT22;38593;52.670;6.286;2022-07-06T13:07:38;21.00;85.00
52697;DHT22;38593;52.670;6.286;2022-07-06T13:10:08;20.90;81.70
52697;DHT22;38593;52.670;6.286;2022-07-06T13:12:34;20.90;83.50
52697;DHT22;38593;52.670;6.286;2022-07-06T13:14:59;20.80;82.30
52697;DHT22;38593;52.670;6.286;2022-07-06T13:17:25;20.90;82.90
52697;DHT22;38593;52.670;6.286;2022-07-06T13:19:50;20.90;81.70
52697;DHT22;38593;52.670;6.286;2022-07-06T13:22:16;21.00;82.80
52697;DHT22;38593;52.670;6.286;2022-07-06T13:24:42;21.10;82.10
52697;DHT22;38593;52.670;6.286;2022-07-06T13:27:07;21.20;81.60
52697;DHT22;38593;52.670;6.286;2022-07-06T13:29:33;21.50;81.70
52697;DHT22;38593;52.670;6.286;2022-07-06T13:31:59;21.70;80.90
52697;DHT22;38593;52.670;6.286;2022-07-06T13:34:24;22.00;80.40
52697;DHT22;38593;52.670;6.286;2022-07-06T13:36:53;22.00;78.10
52697;DHT22;38593;52.670;6.286;2022-07-06T13:39:18;22.00;77.40
52697;DHT22;38593;52.670;6.286;2022-07-06T13:41:45;22.00;77.30
52697;DHT22;38593;52.670;6.286;2022-07-06T13:44:10;21.90;76.30
52697;DHT22;38593;52.670;6.286;2022-07-06T13:46:37;21.90;76.30
52697;DHT22;38593;52.670;6.286;2022-07-06T13:49:03;21.80;76.70
52697;DHT22;38593;52.670;6.286;2022-07-06T13:51:29;21.60;75.10
52697;DHT22;38593;52.670;6.286;2022-07-06T13:53:56;21.50;75.80
52697;DHT22;38593;52.670;6.286;2022-07-06T13:56:22;21.40;75.80
52697;DHT22;38593;52.670;6.286;2022-07-06T13:58:47;21.30;76.60
52697;DHT22;38593;52.670;6.286;2022-07-06T14:01:13;21.30;77.30
52697;DHT22;38593;52.670;6.286;2022-07-06T14:03:38;21.30;78.30
52697;DHT22;38593;52.670;6.286;2022-07-06T14:06:05;21.10;78.20
52697;DHT22;38593;52.670;6.286;2022-07-06T14:08:37;21.10;78.30
52697;DHT22;38593;52.670;6.286;2022-07-06T14:11:03;21.10;78.20
52697;DHT22;38593;52.670;6.286;2022-07-06T14:13:28;21.00;79.00
52697;DHT22;38593;52.670;6.286;2022-07-06T14:15:54;21.00;79.20
52697;DHT22;38593;52.670;6.286;2022-07-06T14:18:19;20.90;79.70
52697;DHT22;38593;52.670;6.286;2022-07-06T14:20:45;20.80;80.00
52697;DHT22;38593;52.670;6.286;2022-07-06T14:23:11;20.90;80.70
52697;DHT22;38593;52.670;6.286;2022-07-06T14:25:37;20.90;81.00
52697;DHT22;38593;52.670;6.286;2022-07-06T14:28:03;20.90;81.00
52697;DHT22;38593;52.670;6.286;2022-07-06T14:30:28;20.80;81.30
52697;DHT22;38593;52.670;6.286;2022-07-06T14:32:54;20.80;81.80
52697;DHT22;38593;52.670;6.286;2022-07-06T14:35:20;20.70;82.00
52697;DHT22;38593;52.670;6.286;2022-07-06T14:37:46;20.80;82.50
52697;DHT22;38593;52.670;6.286;2022-07-06T14:40:12;20.70;82.70
52697;DHT22;38593;52.670;6.286;2022-07-06T14:42:37;20.70;83.00
52697;DHT22;38593;52.670;6.286;2022-07-06T14:45:03;20.80;83.50
52697;DHT22;38593;52.670;6.286;2022-07-06T14:47:29;20.80;83.10
52697;DHT22;38593;52.670;6.286;2022-07-06T14:49:54;20.70;82.80
52697;DHT22;38593;52.670;6.286;2022-07-06T14:52:20;20.70;83.50
52697;DHT22;38593;52.670;6.286;2022-07-06T14:54:46;20.70;84.40
52697;DHT22;38593;52.670;6.286;2022-07-06T14:57:11;20.60;84.60
52697;DHT22;38593;52.670;6.286;2022-07-06T14:59:38;20.60;85.10
52697;DHT22;38593;52.670;6.286;2022-07-06T15:02:03;20.70;85.40
52697;DHT22;38593;52.670;6.286;2022-07-06T15:04:29;20.70;85.60
52697;DHT22;38593;52.670;6.286;2022-07-06T15:06:54;20.70;85.30
52697;DHT22;38593;52.670;6.286;2022-07-06T15:09:20;20.60;85.20
52697;DHT22;38593;52.670;6.286;2022-07-06T15:11:45;20.50;84.60
52697;DHT22;38593;52.670;6.286;2022-07-06T15:14:11;20.50;84.80
52697;DHT22;38593;52.670;6.286;2022-07-06T15:16:37;20.40;85.10
52697;DHT22;38593;52.670;6.286;2022-07-06T15:19:03;20.40;85.70
52697;DHT22;38593;52.670;6.286;2022-07-06T15:21:29;20.40;86.00
52697;DHT22;38593;52.670;6.286;2022-07-06T15:23:55;20.30;86.60
52697;DHT22;38593;52.670;6.286;2022-07-06T15:26:20;20.30;86.60
52697;DHT22;38593;52.670;6.286;2022-07-06T15:28:46;20.30;86.20
52697;DHT22;38593;52.670;6.286;2022-07-06T15:31:11;20.20;86.00
52697;DHT22;38593;52.670;6.286;2022-07-06T15:33:37;20.20;86.20
52697;DHT22;38593;52.670;6.286;2022-07-06T15:36:03;20.10;85.50
52697;DHT22;38593;52.670;6.286;2022-07-06T15:38:29;20.00;87.20